ATR 72-212A from Naysa at Funchal.
 Regi:EC-KGJ  LARGER
 MSN Year:753 2007
 Date of picture:2019-05-22 17:39
 Discription:Named Maderia, flying for Binter Caneiras.
 Position:05
 Flight: DEP PXE NT932 Porto Santo Porto Santo Airport Portugal
 Logs: PXO Port Santo NT932 Naysa 17:30 PM AT7 departed
 Notam LPMA A1836/19 International 05/22/2019 0902 05/22/2019 1700 GRASS CUTTING ALONG RWY 05/23 STRIPS. MEN AND EQUIPMENT UNDER TOWER CONTROL AND AERODROME AUTHORITY SUPERVISION.
 Metar 22/05/2019 17:30 METAR LPMA 221730Z 02009KT 300V070 9999 FEW016 22/11 Q1021=
 Hits: 48 ID: 2304

Debriefing: Photographed movements of Airports in NW-Europe.
The images of our site attendant is in authorisation from Queen of Sky.
Copying of images of this site have been prohibited in which manner without the authorisation of the photographer.
In behalf of the crew :"Thank you visiting us" - Contact
Factsheets ATR, 72-212A, Naysa, made by De Plane! © 2006 - 2022 All rights reserved


.